createdAt,value
2023-10-09T00:02:11.471Z,99.90
2023-10-09T00:04:43.201Z,99.90
2023-10-09T00:07:11.612Z,99.90
2023-10-09T00:09:49.058Z,99.90
2023-10-09T00:12:24.353Z,99.90
2023-10-09T00:14:57.500Z,99.90
2023-10-09T00:17:25.589Z,99.90
2023-10-09T00:19:53.692Z,99.90
2023-10-09T00:22:27.827Z,99.90
2023-10-09T00:25:16.715Z,99.90
2023-10-09T00:27:47.864Z,99.90
2023-10-09T00:30:22.948Z,99.90
2023-10-09T00:33:08.667Z,99.90
2023-10-09T00:35:45.479Z,99.90
2023-10-09T00:38:24.295Z,99.90
2023-10-09T00:41:11.713Z,99.90
2023-10-09T00:43:40.115Z,99.90
2023-10-09T00:46:20.850Z,99.90
2023-10-09T00:48:51.027Z,99.90
2023-10-09T00:51:23.359Z,99.90
2023-10-09T00:53:59.453Z,99.90
2023-10-09T00:56:27.248Z,99.90
2023-10-09T00:59:08.526Z,99.90
2023-10-09T01:01:38.274Z,99.90
2023-10-09T01:04:31.771Z,99.90
2023-10-09T01:07:14.330Z,99.90
2023-10-09T01:09:44.954Z,99.90
2023-10-09T01:12:18.659Z,99.90
2023-10-09T01:14:46.258Z,99.90
2023-10-09T01:17:19.887Z,99.90
2023-10-09T01:19:48.566Z,99.90
2023-10-09T01:22:17.150Z,99.90
2023-10-09T01:24:45.094Z,99.90
2023-10-09T01:27:18.545Z,99.90
2023-10-09T01:29:47.881Z,99.90
2023-10-09T01:32:18.390Z,99.90
2023-10-09T01:34:49.527Z,99.90
2023-10-09T01:37:27.346Z,99.90
2023-10-09T01:39:59.336Z,99.90
2023-10-09T01:42:36.152Z,99.90
2023-10-09T01:45:23.985Z,99.90
2023-10-09T01:47:55.122Z,99.90
2023-10-09T01:50:26.013Z,99.90
2023-10-09T01:52:53.353Z,99.90
2023-10-09T01:55:34.333Z,99.90
2023-10-09T01:58:22.374Z,99.90
2023-10-09T02:00:51.915Z,99.90
2023-10-09T02:03:19.731Z,99.90
2023-10-09T02:05:46.887Z,99.90
2023-10-09T02:08:14.436Z,99.90
2023-10-09T02:10:41.628Z,99.90
2023-10-09T02:13:10.405Z,99.90
2023-10-09T02:15:45.316Z,99.90
2023-10-09T02:18:33.314Z,99.90
2023-10-09T02:21:06.254Z,99.90
2023-10-09T02:23:45.894Z,99.90
2023-10-09T02:26:26.621Z,99.90
2023-10-09T02:29:15.533Z,99.90
2023-10-09T02:31:45.605Z,99.90
2023-10-09T02:34:13.233Z,99.90
2023-10-09T02:36:44.478Z,99.90
2023-10-09T02:39:30.629Z,99.90
2023-10-09T02:42:02.988Z,99.90
2023-10-09T02:44:40.501Z,99.90
2023-10-09T02:47:19.441Z,99.90
2023-10-09T02:49:49.471Z,99.90
2023-10-09T02:52:35.914Z,99.90
2023-10-09T02:55:09.380Z,99.90
2023-10-09T02:57:39.185Z,99.90
2023-10-09T03:00:10.765Z,99.90
2023-10-09T03:02:41.469Z,99.90
2023-10-09T03:05:13.592Z,99.90
2023-10-09T03:07:43.514Z,99.90
2023-10-09T03:10:11.110Z,99.90
2023-10-09T03:12:40.617Z,99.90
2023-10-09T03:15:10.050Z,99.90
2023-10-09T03:17:37.465Z,99.90
2023-10-09T03:20:13.589Z,99.90
2023-10-09T03:22:41.759Z,99.90
2023-10-09T03:25:12.787Z,99.90
2023-10-09T03:27:48.909Z,99.90
2023-10-09T03:30:18.690Z,99.90
2023-10-09T03:32:52.057Z,99.90
2023-10-09T03:35:27.292Z,99.90
2023-10-09T03:38:02.130Z,99.90
2023-10-09T03:40:29.415Z,99.90
2023-10-09T03:42:56.519Z,99.90
2023-10-09T03:45:26.727Z,99.90
2023-10-09T03:48:18.026Z,99.90
2023-10-09T03:50:47.140Z,99.90
2023-10-09T03:53:14.942Z,99.90
2023-10-09T03:55:43.124Z,99.90
2023-10-09T03:58:13.525Z,99.90
2023-10-09T04:00:47.271Z,99.90
2023-10-09T04:03:15.871Z,99.90
2023-10-09T04:05:44.285Z,99.90
2023-10-09T04:08:30.111Z,99.90
2023-10-09T04:11:04.154Z,99.90
2023-10-09T04:13:36.147Z,99.90
2023-10-09T04:16:11.049Z,99.90
2023-10-09T04:18:40.068Z,99.90
2023-10-09T04:21:19.772Z,99.90
2023-10-09T04:24:06.138Z,99.90
2023-10-09T04:26:36.270Z,99.90
2023-10-09T04:29:03.699Z,99.90
2023-10-09T04:31:35.829Z,99.90
2023-10-09T04:34:23.095Z,99.90
2023-10-09T04:36:52.567Z,99.90
2023-10-09T04:39:31.577Z,99.90
2023-10-09T04:42:28.531Z,99.90
2023-10-09T04:45:04.760Z,99.90
2023-10-09T04:47:39.050Z,99.90
2023-10-09T04:50:15.721Z,99.90
2023-10-09T04:52:42.689Z,99.90
2023-10-09T04:55:12.898Z,99.90
2023-10-09T04:57:45.370Z,99.90
2023-10-09T05:00:26.763Z,99.90
2023-10-09T05:03:14.729Z,99.90
2023-10-09T05:05:42.466Z,99.90
2023-10-09T05:08:23.117Z,99.90
2023-10-09T05:11:01.196Z,99.90
2023-10-09T05:13:43.406Z,99.90
2023-10-09T05:16:28.285Z,99.90
2023-10-09T05:19:09.274Z,99.90
2023-10-09T05:21:45.696Z,99.90
2023-10-09T05:24:14.020Z,99.90
2023-10-09T05:26:48.516Z,99.90
2023-10-09T05:29:34.157Z,99.90
2023-10-09T05:32:15.166Z,99.90
2023-10-09T05:35:01.850Z,99.90
2023-10-09T05:37:44.590Z,99.90
2023-10-09T05:40:18.002Z,99.90
2023-10-09T05:42:46.664Z,99.90
2023-10-09T05:45:36.044Z,99.90
2023-10-09T05:48:15.605Z,99.90
2023-10-09T05:51:01.402Z,99.90
2023-10-09T05:53:46.824Z,99.90
2023-10-09T05:56:32.343Z,99.90
2023-10-09T05:59:17.914Z,99.90
2023-10-09T06:02:00.058Z,99.90
2023-10-09T06:04:45.922Z,99.90
2023-10-09T06:07:23.531Z,99.90
2023-10-09T06:09:58.852Z,99.90
2023-10-09T06:12:35.023Z,99.90
2023-10-09T06:15:32.464Z,99.90
2023-10-09T06:18:19.473Z,99.90
2023-10-09T06:21:05.301Z,99.90
2023-10-09T06:23:51.021Z,99.90
2023-10-09T06:26:27.625Z,99.90
2023-10-09T06:29:13.071Z,99.90
2023-10-09T06:31:58.691Z,99.90
2023-10-09T06:34:36.665Z,99.90
2023-10-09T06:37:27.289Z,99.90
2023-10-09T06:39:58.895Z,99.90
2023-10-09T06:42:39.619Z,99.90
2023-10-09T06:45:09.771Z,99.90
2023-10-09T06:47:43.305Z,99.90
2023-10-09T06:50:22.331Z,99.90
2023-10-09T06:52:59.887Z,99.90
2023-10-09T06:55:44.735Z,99.90
2023-10-09T06:58:16.621Z,99.90
2023-10-09T07:01:02.381Z,99.90
2023-10-09T07:03:34.497Z,99.90
2023-10-09T07:06:25.668Z,99.90
2023-10-09T07:09:06.175Z,99.90
2023-10-09T07:11:58.962Z,99.90
2023-10-09T07:14:32.057Z,99.90
2023-10-09T07:17:30.293Z,99.90
2023-10-09T07:19:57.279Z,99.90
2023-10-09T07:22:24.308Z,99.90
2023-10-09T07:24:58.052Z,99.90
2023-10-09T07:27:44.514Z,99.90
2023-10-09T07:30:31.625Z,99.90
2023-10-09T07:33:12.332Z,99.90
2023-10-09T07:35:44.097Z,99.90
2023-10-09T07:38:22.925Z,99.90
2023-10-09T07:41:07.526Z,99.90
2023-10-09T07:43:41.227Z,99.90
2023-10-09T07:46:27.539Z,99.90
2023-10-09T07:48:56.221Z,99.90
2023-10-09T07:51:24.977Z,99.90
2023-10-09T07:53:58.536Z,99.90
2023-10-09T07:56:26.084Z,99.90
2023-10-09T07:58:53.299Z,99.90
2023-10-09T08:01:38.705Z,99.90
2023-10-09T08:04:12.271Z,99.90
2023-10-09T08:06:40.364Z,99.90
2023-10-09T08:09:20.475Z,99.90
2023-10-09T08:12:09.185Z,99.90
2023-10-09T08:14:36.233Z,99.90
2023-10-09T08:17:22.173Z,99.90
2023-10-09T08:20:12.847Z,99.90
2023-10-09T08:22:44.498Z,99.90
2023-10-09T08:25:28.400Z,99.90
2023-10-09T08:27:58.586Z,99.90
2023-10-09T08:30:27.137Z,99.90
2023-10-09T08:35:50.644Z,99.90
2023-10-09T08:38:25.089Z,99.90
2023-10-09T08:40:59.978Z,99.90
2023-10-09T08:43:32.383Z,99.90
2023-10-09T08:46:04.611Z,99.90
2023-10-09T08:48:32.236Z,99.90
2023-10-09T08:50:59.466Z,99.90
2023-10-09T08:53:29.301Z,99.90
2023-10-09T08:55:56.820Z,99.90
2023-10-09T08:58:43.824Z,99.90
2023-10-09T09:01:18.635Z,99.90
2023-10-09T09:03:46.404Z,99.90
2023-10-09T09:06:15.786Z,99.90
2023-10-09T09:08:46.315Z,99.90
2023-10-09T09:11:18.211Z,99.90
2023-10-09T09:13:50.120Z,99.90
2023-10-09T09:16:31.321Z,99.90
2023-10-09T09:19:12.610Z,99.90
2023-10-09T09:21:48.895Z,98.90
2023-10-09T09:24:20.112Z,99.70
2023-10-09T09:26:47.221Z,99.90
2023-10-09T09:29:19.168Z,99.40
2023-10-09T09:31:59.062Z,99.90
2023-10-09T09:34:30.736Z,96.50
2023-10-09T09:36:59.358Z,95.50
2023-10-09T09:39:38.595Z,95.60
2023-10-09T09:42:16.624Z,98.50
2023-10-09T09:44:45.919Z,91.80
2023-10-09T09:47:37.475Z,86.80
2023-10-09T09:50:25.866Z,88.00
2023-10-09T09:52:57.819Z,92.50
2023-10-09T09:55:34.960Z,79.50
2023-10-09T09:58:08.669Z,79.10
2023-10-09T10:00:44.307Z,84.00
2023-10-09T10:03:27.058Z,84.50
2023-10-09T10:05:58.246Z,79.00
2023-10-09T10:08:35.859Z,79.40
2023-10-09T10:11:15.304Z,78.70
2023-10-09T10:13:42.564Z,88.50
2023-10-09T10:16:15.370Z,80.30
2023-10-09T10:19:01.724Z,78.70
2023-10-09T10:21:32.944Z,84.00
2023-10-09T10:24:07.122Z,90.20
2023-10-09T10:26:37.471Z,81.60
2023-10-09T10:29:35.716Z,89.80
2023-10-09T10:32:09.446Z,83.90
2023-10-09T10:35:07.991Z,81.30
2023-10-09T10:37:45.098Z,78.00
2023-10-09T10:40:21.268Z,83.00
2023-10-09T10:43:09.237Z,80.00
2023-10-09T10:45:45.015Z,80.80
2023-10-09T10:48:24.583Z,75.10
2023-10-09T10:50:58.736Z,78.60
2023-10-09T10:53:30.676Z,80.40
2023-10-09T10:56:16.721Z,84.30
2023-10-09T10:59:13.075Z,80.70
2023-10-09T11:01:59.034Z,78.20
2023-10-09T11:04:31.475Z,79.20
2023-10-09T11:07:20.221Z,78.10
2023-10-09T11:10:08.141Z,79.50
2023-10-09T11:12:46.735Z,79.70
2023-10-09T11:15:23.705Z,79.00
2023-10-09T11:18:08.523Z,75.90
2023-10-09T11:20:37.515Z,77.30
2023-10-09T11:23:11.716Z,76.90
2023-10-09T11:25:54.122Z,76.40
2023-10-09T11:28:31.421Z,75.80
2023-10-09T11:31:12.578Z,75.00
2023-10-09T11:33:46.420Z,72.70
2023-10-09T11:36:13.656Z,72.30
2023-10-09T11:38:47.077Z,74.30
2023-10-09T11:41:25.470Z,74.50
2023-10-09T11:43:54.522Z,73.80
2023-10-09T11:46:58.468Z,74.10
2023-10-09T11:49:45.634Z,72.50
2023-10-09T11:52:13.098Z,71.20
2023-10-09T11:54:40.170Z,72.60
2023-10-09T11:57:07.338Z,73.60
2023-10-09T11:59:39.244Z,73.40
2023-10-09T12:02:14.326Z,72.50
2023-10-09T12:04:46.445Z,71.30
2023-10-09T12:07:14.357Z,72.80
2023-10-09T12:09:41.651Z,75.80
2023-10-09T12:12:12.062Z,73.00
2023-10-09T12:14:39.125Z,71.80
2023-10-09T12:17:07.817Z,72.20
2023-10-09T12:19:42.277Z,71.00
2023-10-09T12:22:17.645Z,70.70
2023-10-09T12:24:45.028Z,70.20
2023-10-09T12:27:12.754Z,73.10
2023-10-09T12:29:47.212Z,72.00
2023-10-09T12:32:20.858Z,71.00
2023-10-09T12:34:52.170Z,70.90
2023-10-09T12:37:22.295Z,70.70
2023-10-09T12:39:49.692Z,67.90
2023-10-09T12:42:18.345Z,66.10
2023-10-09T12:44:45.908Z,66.30
2023-10-09T12:47:13.287Z,65.80
2023-10-09T12:49:43.462Z,65.60
2023-10-09T12:52:16.724Z,66.70
2023-10-09T12:54:49.914Z,66.30
2023-10-09T12:57:16.927Z,66.30
2023-10-09T12:59:46.710Z,66.20
2023-10-09T13:02:29.829Z,65.40
2023-10-09T13:04:58.573Z,64.60
2023-10-09T13:07:26.904Z,65.80
2023-10-09T13:10:14.665Z,65.40
2023-10-09T13:12:44.347Z,64.30
2023-10-09T13:15:12.711Z,64.80
2023-10-09T13:17:40.202Z,63.90
2023-10-09T13:20:17.626Z,63.80
2023-10-09T13:22:50.151Z,67.40
2023-10-09T13:25:33.801Z,65.00
2023-10-09T13:28:05.418Z,66.30
2023-10-09T13:30:41.521Z,68.50
2023-10-09T13:33:09.099Z,68.10
2023-10-09T13:35:46.775Z,68.50
2023-10-09T13:38:13.779Z,68.00
2023-10-09T13:40:40.915Z,69.00
2023-10-09T13:43:08.230Z,68.50
2023-10-09T13:45:40.103Z,69.40
2023-10-09T13:48:12.986Z,70.10
2023-10-09T13:50:44.023Z,69.80
2023-10-09T13:53:13.497Z,70.20
2023-10-09T13:55:45.148Z,70.20
2023-10-09T13:58:22.286Z,70.40
2023-10-09T14:00:51.269Z,69.80
2023-10-09T14:03:21.436Z,69.70
2023-10-09T14:05:58.538Z,70.70
2023-10-09T14:08:27.638Z,70.60
2023-10-09T14:10:56.102Z,70.70
2023-10-09T14:13:30.384Z,71.80
2023-10-09T14:16:01.207Z,71.20
2023-10-09T14:18:31.436Z,72.00
2023-10-09T14:21:06.219Z,71.30
2023-10-09T14:23:36.264Z,72.30
2023-10-09T14:26:03.750Z,71.30
2023-10-09T14:28:30.862Z,71.60
2023-10-09T14:31:02.077Z,72.50
2023-10-09T14:33:37.878Z,72.30
2023-10-09T14:36:07.404Z,72.50
2023-10-09T14:38:39.904Z,73.20
2023-10-09T14:41:13.213Z,73.10
2023-10-09T14:43:42.602Z,74.80
2023-10-09T14:46:15.270Z,73.00
2023-10-09T14:48:47.575Z,73.50
2023-10-09T14:51:14.876Z,73.60
2023-10-09T14:53:42.251Z,76.20
2023-10-09T14:56:17.127Z,86.60
2023-10-09T14:58:46.188Z,99.90
2023-10-09T15:01:16.571Z,99.90
2023-10-09T15:03:44.448Z,99.90
2023-10-09T15:06:12.637Z,99.90
2023-10-09T15:08:41.454Z,99.90
2023-10-09T15:11:08.658Z,99.90
2023-10-09T15:13:36.114Z,99.90
2023-10-09T15:16:05.289Z,99.90
2023-10-09T15:18:35.267Z,99.90
2023-10-09T15:21:02.439Z,99.90
2023-10-09T15:23:29.805Z,99.90
2023-10-09T15:25:57.057Z,99.90
2023-10-09T15:28:24.725Z,99.90
2023-10-09T15:30:52.086Z,99.90
2023-10-09T15:33:20.157Z,99.90
2023-10-09T15:35:48.108Z,99.90
2023-10-09T15:38:15.375Z,99.90
2023-10-09T15:40:45.156Z,99.90
2023-10-09T15:43:14.839Z,99.90
2023-10-09T15:45:45.913Z,99.90
2023-10-09T15:48:13.315Z,99.90
2023-10-09T15:50:49.909Z,99.90
2023-10-09T15:53:18.632Z,99.90
2023-10-09T15:55:46.780Z,99.90
2023-10-09T15:58:14.192Z,99.90
2023-10-09T16:00:45.135Z,99.90
2023-10-09T16:03:15.423Z,99.90
2023-10-09T16:05:43.177Z,99.90
2023-10-09T16:08:10.850Z,99.90
2023-10-09T16:10:38.391Z,99.90
2023-10-09T16:13:05.925Z,99.90
2023-10-09T16:15:34.103Z,99.90
2023-10-09T16:18:07.751Z,99.90
2023-10-09T16:20:35.050Z,99.90
2023-10-09T16:23:05.790Z,99.90
2023-10-09T16:25:35.480Z,99.90
2023-10-09T16:28:04.202Z,99.90
2023-10-09T16:30:31.462Z,99.90
2023-10-09T16:32:58.807Z,99.90
2023-10-09T16:35:26.013Z,99.90
2023-10-09T16:37:54.314Z,99.90
2023-10-09T16:40:24.714Z,99.90
2023-10-09T16:42:54.897Z,99.90
2023-10-09T16:45:22.386Z,99.90
2023-10-09T16:47:52.792Z,99.90
2023-10-09T16:50:21.031Z,99.90
2023-10-09T16:52:48.441Z,99.90
2023-10-09T16:55:16.503Z,99.90
2023-10-09T16:57:45.160Z,99.90
2023-10-09T17:00:31.091Z,99.90
2023-10-09T17:03:02.121Z,99.90
2023-10-09T17:05:29.852Z,99.90
2023-10-09T17:07:57.592Z,99.90
2023-10-09T17:10:29.426Z,99.90
2023-10-09T17:12:56.917Z,99.90
2023-10-09T17:15:30.619Z,99.90
2023-10-09T17:17:58.055Z,99.90
2023-10-09T17:20:28.517Z,99.90
2023-10-09T17:23:01.629Z,99.90
2023-10-09T17:25:32.414Z,99.90
2023-10-09T17:28:01.246Z,99.90
2023-10-09T17:30:28.557Z,99.90
2023-10-09T17:32:59.523Z,99.90
2023-10-09T17:35:29.285Z,99.90
2023-10-09T17:37:58.184Z,99.90
2023-10-09T17:40:29.471Z,99.90
2023-10-09T17:42:57.504Z,99.90
2023-10-09T17:45:26.117Z,99.90
2023-10-09T17:47:54.527Z,99.90
2023-10-09T17:50:23.272Z,99.90
2023-10-09T17:52:50.767Z,99.90
2023-10-09T17:55:23.894Z,99.90
2023-10-09T17:57:51.103Z,99.90
2023-10-09T18:00:24.593Z,99.90
2023-10-09T18:02:53.701Z,99.90
2023-10-09T18:05:21.373Z,99.90
2023-10-09T18:07:51.078Z,99.90
2023-10-09T18:10:18.794Z,99.90
2023-10-09T18:12:46.074Z,99.90
2023-10-09T18:15:15.163Z,99.90
2023-10-09T18:17:45.515Z,99.90
2023-10-09T18:20:13.697Z,99.90
2023-10-09T18:22:40.785Z,99.90
2023-10-09T18:25:08.131Z,99.90
2023-10-09T18:27:35.517Z,99.90
2023-10-09T18:30:02.539Z,99.90
2023-10-09T18:32:29.577Z,99.90
2023-10-09T18:34:57.228Z,99.90
2023-10-09T18:37:25.469Z,99.90
2023-10-09T18:39:52.985Z,99.90
2023-10-09T18:42:20.457Z,99.90
2023-10-09T18:44:47.514Z,99.90
2023-10-09T18:47:20.482Z,99.90
2023-10-09T18:49:51.634Z,99.90
2023-10-09T18:52:18.981Z,99.90
2023-10-09T18:54:46.776Z,99.90
2023-10-09T18:57:14.083Z,99.90
2023-10-09T18:59:44.107Z,99.90
2023-10-09T19:02:12.977Z,99.90
2023-10-09T19:04:40.433Z,99.90
2023-10-09T19:07:07.610Z,99.90
2023-10-09T19:09:34.621Z,99.90
2023-10-09T19:12:01.932Z,99.90
2023-10-09T19:14:30.300Z,99.90
2023-10-09T19:17:01.738Z,99.90
2023-10-09T19:19:28.908Z,99.90
2023-10-09T19:21:56.114Z,99.90
2023-10-09T19:24:23.255Z,99.90
2023-10-09T19:26:50.389Z,99.90
2023-10-09T19:29:17.475Z,99.90
2023-10-09T19:31:45.507Z,99.90
2023-10-09T19:34:15.097Z,99.90
2023-10-09T19:36:47.776Z,99.90
2023-10-09T19:39:18.837Z,99.90
2023-10-09T19:41:46.156Z,99.90
2023-10-09T19:44:13.336Z,99.90
2023-10-09T19:46:41.008Z,99.90
2023-10-09T19:49:10.255Z,99.90
2023-10-09T19:51:37.380Z,99.90
2023-10-09T19:54:05.104Z,99.90
2023-10-09T19:56:33.270Z,99.90
2023-10-09T19:59:00.353Z,99.90
2023-10-09T20:01:28.867Z,99.90
2023-10-09T20:03:56.385Z,99.90
2023-10-09T20:06:24.238Z,99.90
2023-10-09T20:08:51.182Z,99.90
2023-10-09T20:11:18.424Z,99.90
2023-10-09T20:13:45.845Z,99.90
2023-10-09T20:16:13.204Z,99.90
2023-10-09T20:18:44.096Z,99.90
2023-10-09T20:21:14.212Z,99.90
2023-10-09T20:23:42.347Z,99.90
2023-10-09T20:26:15.970Z,99.90
2023-10-09T20:28:44.347Z,99.90
2023-10-09T20:31:12.515Z,99.90
2023-10-09T20:33:40.841Z,99.90
2023-10-09T20:36:17.217Z,99.90
2023-10-09T20:38:47.975Z,99.90
2023-10-09T20:41:16.517Z,99.90
2023-10-09T20:43:43.741Z,99.90
2023-10-09T20:46:14.083Z,99.90
2023-10-09T20:48:46.562Z,99.90
2023-10-09T20:51:18.140Z,99.90
2023-10-09T20:53:45.680Z,99.90
2023-10-09T20:56:12.769Z,99.90
2023-10-09T20:58:44.448Z,99.90
2023-10-09T21:01:18.309Z,99.90
2023-10-09T21:03:46.903Z,99.90
2023-10-09T21:06:15.583Z,99.90
2023-10-09T21:08:43.879Z,99.90
2023-10-09T21:11:11.265Z,99.90
2023-10-09T21:13:39.937Z,99.90
2023-10-09T21:16:13.787Z,99.90
2023-10-09T21:18:44.676Z,99.90
2023-10-09T21:21:16.028Z,99.90
2023-10-09T21:23:44.271Z,99.90
2023-10-09T21:26:22.400Z,99.90
2023-10-09T21:28:51.958Z,99.90
2023-10-09T21:31:22.013Z,99.90
2023-10-09T21:33:50.820Z,99.90
2023-10-09T21:36:18.582Z,99.90
2023-10-09T21:38:45.793Z,99.90
2023-10-09T21:41:13.946Z,99.90
2023-10-09T21:43:41.949Z,99.90
2023-10-09T21:46:10.895Z,99.90
2023-10-09T21:48:39.168Z,99.90
2023-10-09T21:51:10.048Z,99.90
2023-10-09T21:53:38.048Z,99.90
2023-10-09T21:56:10.580Z,99.90
2023-10-09T21:58:38.223Z,99.90
2023-10-09T22:01:09.271Z,99.90
2023-10-09T22:03:41.655Z,99.90
2023-10-09T22:06:11.633Z,99.90
2023-10-09T22:08:39.054Z,99.90
2023-10-09T22:11:08.702Z,99.90
2023-10-09T22:13:36.354Z,99.90
2023-10-09T22:16:03.496Z,99.90
2023-10-09T22:18:31.486Z,99.90
2023-10-09T22:20:58.742Z,99.90
2023-10-09T22:23:36.829Z,99.90
2023-10-09T22:26:05.425Z,99.90
2023-10-09T22:28:35.760Z,99.90
2023-10-09T22:31:05.453Z,99.90
2023-10-09T22:33:47.036Z,99.90
2023-10-09T22:36:34.456Z,99.90
2023-10-09T22:39:06.788Z,99.90
2023-10-09T22:41:36.004Z,99.90
2023-10-09T22:44:12.011Z,99.90
2023-10-09T22:46:41.938Z,99.90
2023-10-09T22:49:15.960Z,99.90
2023-10-09T22:51:51.543Z,99.90
2023-10-09T22:54:35.878Z,99.90
2023-10-09T22:57:04.457Z,99.90
2023-10-09T22:59:33.242Z,99.90
2023-10-09T23:02:01.020Z,99.90
2023-10-09T23:04:40.406Z,99.90
2023-10-09T23:07:16.251Z,99.90
2023-10-09T23:09:55.772Z,99.90
2023-10-09T23:12:27.008Z,99.90
2023-10-09T23:14:56.829Z,99.90
2023-10-09T23:17:44.142Z,99.90
2023-10-09T23:20:21.118Z,99.90
2023-10-09T23:22:51.254Z,99.90
2023-10-09T23:25:31.377Z,99.90
2023-10-09T23:28:15.836Z,99.90
2023-10-09T23:30:45.849Z,99.90
2023-10-09T23:33:22.251Z,99.90
2023-10-09T23:35:56.799Z,99.90
2023-10-09T23:38:33.384Z,99.90
2023-10-09T23:41:13.329Z,99.90
2023-10-09T23:43:46.208Z,99.90
2023-10-09T23:46:18.208Z,99.90
2023-10-09T23:48:46.086Z,99.90
2023-10-09T23:51:20.202Z,99.90
2023-10-09T23:53:53.446Z,99.90
2023-10-09T23:56:40.920Z,99.90
2023-10-09T23:59:13.105Z,99.90
